Time;durP1;ratioP1;P1;durP2;ratioP2;P2;SDS_P1;SDS_P2;PMS_P1;PMS_P2;Temp;Humidity;BMP_temperature;BMP_pressure;BME280_temperature;BME280_humidity;BME280_pressure;Samples;Min_cycle;Max_cycle;Signal;HPM_P1;HPM_P2
2021/10/27 00:00:10;;;;;;;1.20;0.70;;;10.00;99.90;;;;;;5176587;27;20422;-59
2021/10/27 00:02:37;;;;;;;1.70;0.70;;;10.00;99.90;;;;;;5177810;27;20510;-59
2021/10/27 00:05:06;;;;;;;1.10;0.70;;;10.10;99.90;;;;;;5177843;27;20905;-59
2021/10/27 00:07:33;;;;;;;2.03;0.70;;;10.00;99.90;;;;;;5177444;27;20407;-59
2021/10/27 00:10:04;;;;;;;1.10;0.70;;;10.00;99.90;;;;;;5177713;27;20499;-59
2021/10/27 00:12:31;;;;;;;1.40;0.70;;;10.00;99.90;;;;;;5177651;27;20413;-59
2021/10/27 00:15:01;;;;;;;1.75;0.77;;;10.00;99.90;;;;;;5177606;27;20510;-60
2021/10/27 00:17:29;;;;;;;1.38;0.80;;;9.90;99.90;;;;;;5177615;27;20769;-60
2021/10/27 00:19:59;;;;;;;1.00;0.60;;;9.90;99.90;;;;;;5177336;27;20423;-60
2021/10/27 00:22:28;;;;;;;1.38;0.68;;;9.90;99.90;;;;;;5177279;27;20926;-60
2021/10/27 00:24:55;;;;;;;0.80;0.70;;;10.00;99.90;;;;;;5177145;27;20432;-60
2021/10/27 00:27:22;;;;;;;0.90;0.60;;;10.00;99.90;;;;;;5176605;27;20418;-60
2021/10/27 00:29:50;;;;;;;1.00;0.60;;;10.00;99.90;;;;;;5176647;27;20514;-60
2021/10/27 00:32:18;;;;;;;2.20;0.70;;;9.90;99.90;;;;;;5175227;27;20501;-59
2021/10/27 00:34:46;;;;;;;1.03;0.70;;;10.00;99.90;;;;;;5178969;27;20845;-58
2021/10/27 00:37:13;;;;;;;1.38;0.80;;;10.00;99.90;;;;;;5178903;27;20491;-58
2021/10/27 00:39:40;;;;;;;1.30;0.70;;;10.00;99.90;;;;;;5178502;27;20725;-59
2021/10/27 00:42:12;;;;;;;1.10;0.70;;;9.90;99.90;;;;;;5179069;27;20429;-59
2021/10/27 00:44:41;;;;;;;1.15;1.00;;;9.80;99.90;;;;;;5179808;27;20436;-59
2021/10/27 00:47:10;;;;;;;1.27;0.80;;;9.90;99.90;;;;;;5179476;27;20417;-58
2021/10/27 00:49:41;;;;;;;1.27;0.80;;;9.80;99.90;;;;;;5179294;27;20423;-59
2021/10/27 00:52:11;;;;;;;1.20;0.80;;;9.80;99.90;;;;;;5179410;27;20481;-58
2021/10/27 00:54:39;;;;;;;3.00;0.90;;;9.90;99.90;;;;;;5180262;27;20821;-59
2021/10/27 00:57:07;;;;;;;1.10;0.88;;;9.90;99.90;;;;;;5180025;27;20406;-58
2021/10/27 00:59:39;;;;;;;2.60;1.00;;;9.80;99.90;;;;;;5179908;27;20522;-58
2021/10/27 01:02:06;;;;;;;1.00;0.80;;;9.70;99.90;;;;;;5178765;27;20861;-59
2021/10/27 01:04:34;;;;;;;1.10;0.77;;;9.60;99.90;;;;;;5177752;27;20505;-59
2021/10/27 01:07:03;;;;;;;2.42;0.90;;;9.50;99.90;;;;;;5179399;27;20422;-59
2021/10/27 01:09:31;;;;;;;1.30;0.90;;;9.50;99.90;;;;;;5179246;27;20522;-59
2021/10/27 01:12:00;;;;;;;1.45;0.80;;;9.40;99.90;;;;;;5179023;27;20407;-59
2021/10/27 01:14:35;;;;;;;1.60;0.80;;;9.40;99.90;;;;;;5179452;27;20449;-59
2021/10/27 01:17:03;;;;;;;1.60;0.80;;;9.50;99.90;;;;;;5179987;27;20418;-59
2021/10/27 01:19:35;;;;;;;1.75;0.80;;;9.50;99.90;;;;;;5180714;27;20425;-59
2021/10/27 01:22:02;;;;;;;1.30;0.88;;;9.70;99.90;;;;;;5180944;27;20468;-59
2021/10/27 01:24:30;;;;;;;2.30;0.98;;;9.80;99.90;;;;;;5180535;27;20909;-58
2021/10/27 01:26:57;;;;;;;1.98;0.82;;;9.90;99.90;;;;;;5180801;27;20452;-59
2021/10/27 01:29:24;;;;;;;1.30;0.90;;;10.00;99.90;;;;;;5180216;27;20826;-58
2021/10/27 01:31:51;;;;;;;1.73;0.98;;;10.00;99.90;;;;;;5179036;27;20825;-59
2021/10/27 01:34:18;;;;;;;1.20;0.90;;;9.90;99.90;;;;;;5178623;27;20733;-60
2021/10/27 01:36:47;;;;;;;2.30;0.90;;;9.70;99.90;;;;;;5178625;27;20443;-59
2021/10/27 01:39:14;;;;;;;1.70;0.90;;;9.70;99.90;;;;;;5178552;27;20722;-59
2021/10/27 01:41:41;;;;;;;1.40;0.90;;;9.70;99.90;;;;;;5178621;27;20423;-60
2021/10/27 01:44:09;;;;;;;1.30;0.90;;;9.70;99.90;;;;;;5178042;27;20425;-59
2021/10/27 01:46:39;;;;;;;1.55;0.90;;;9.70;99.90;;;;;;5179926;27;20469;-60
2021/10/27 01:49:08;;;;;;;1.70;0.90;;;9.90;99.90;;;;;;5180316;27;20515;-60
2021/10/27 01:51:36;;;;;;;1.30;0.80;;;10.00;99.90;;;;;;5178753;27;20506;-60
2021/10/27 01:54:06;;;;;;;1.10;0.70;;;10.00;99.90;;;;;;5178542;27;20423;-60
2021/10/27 01:56:34;;;;;;;1.85;0.80;;;10.00;99.90;;;;;;5178963;27;20411;-60
2021/10/27 01:59:01;;;;;;;1.10;0.80;;;10.00;99.90;;;;;;5179723;27;20430;-60
2021/10/27 02:01:28;;;;;;;1.25;0.70;;;10.10;99.90;;;;;;5180235;27;20502;-59
2021/10/27 02:03:56;;;;;;;1.35;0.90;;;10.10;99.90;;;;;;5179782;27;20519;-60
2021/10/27 02:06:23;;;;;;;1.30;0.90;;;10.10;99.90;;;;;;5180205;27;20418;-59
2021/10/27 02:08:50;;;;;;;1.90;0.80;;;10.00;99.90;;;;;;5179702;27;20820;-60
2021/10/27 02:11:20;;;;;;;1.33;0.90;;;9.90;99.90;;;;;;5179942;27;20838;-60
2021/10/27 02:13:47;;;;;;;1.80;0.80;;;9.80;99.90;;;;;;5179648;27;20515;-60
2021/10/27 02:16:14;;;;;;;1.20;0.80;;;9.70;99.90;;;;;;5178994;27;20423;-60
2021/10/27 02:18:42;;;;;;;1.60;0.90;;;9.60;99.90;;;;;;5177766;27;20502;-59
2021/10/27 02:21:09;;;;;;;1.10;0.80;;;9.70;99.90;;;;;;5178110;27;20411;-59
2021/10/27 02:23:36;;;;;;;1.60;0.80;;;9.70;99.90;;;;;;5178052;27;20514;-60
2021/10/27 02:26:03;;;;;;;1.00;0.75;;;9.70;99.90;;;;;;5178012;27;20490;-60
2021/10/27 02:28:32;;;;;;;1.20;0.80;;;9.70;99.90;;;;;;5178085;27;20476;-60
2021/10/27 02:30:59;;;;;;;1.70;0.80;;;9.70;99.90;;;;;;5177728;27;20403;-59
2021/10/27 02:33:26;;;;;;;1.40;0.80;;;9.60;99.90;;;;;;5178803;27;20462;-60
2021/10/27 02:35:54;;;;;;;1.10;0.80;;;9.50;99.90;;;;;;5179538;27;20852;-59
2021/10/27 02:38:21;;;;;;;1.20;0.80;;;9.50;99.90;;;;;;5179401;27;20764;-59
2021/10/27 02:40:49;;;;;;;1.95;0.80;;;9.50;99.90;;;;;;5179383;27;20502;-60
2021/10/27 02:43:16;;;;;;;2.08;1.00;;;9.40;99.90;;;;;;5179262;27;20459;-60
2021/10/27 02:45:45;;;;;;;1.80;0.90;;;9.50;99.90;;;;;;5179247;27;20826;-59
2021/10/27 02:48:13;;;;;;;1.20;0.80;;;9.50;99.90;;;;;;5179066;27;20840;-60
2021/10/27 02:50:41;;;;;;;2.13;0.90;;;9.50;99.90;;;;;;5178915;27;20439;-60
2021/10/27 02:53:08;;;;;;;1.77;1.00;;;9.30;99.90;;;;;;5179202;27;20411;-60
2021/10/27 02:55:36;;;;;;;1.60;0.95;;;9.20;99.90;;;;;;5178602;27;20423;-60
2021/10/27 02:58:03;;;;;;;1.10;0.80;;;9.20;99.90;;;;;;5177499;27;20411;-59
2021/10/27 03:00:31;;;;;;;1.30;0.90;;;9.20;99.90;;;;;;5178836;27;20410;-60
2021/10/27 03:02:59;;;;;;;1.77;0.88;;;9.30;99.90;;;;;;5178669;27;20425;-60
2021/10/27 03:05:27;;;;;;;2.30;0.90;;;9.30;99.90;;;;;;5179038;27;20495;-59
2021/10/27 03:07:55;;;;;;;1.73;0.90;;;9.40;99.90;;;;;;5178653;27;20415;-59
2021/10/27 03:10:22;;;;;;;1.63;1.05;;;9.40;99.90;;;;;;5178757;27;20407;-59
2021/10/27 03:12:50;;;;;;;1.67;1.13;;;9.30;99.90;;;;;;5178934;27;20485;-59
2021/10/27 03:15:17;;;;;;;1.40;0.90;;;9.30;99.90;;;;;;5178178;27;20462;-59
2021/10/27 03:17:44;;;;;;;1.50;1.00;;;9.50;99.90;;;;;;5178482;27;20408;-59
2021/10/27 03:20:13;;;;;;;1.90;1.20;;;9.50;99.90;;;;;;5178403;27;20422;-59
2021/10/27 03:22:40;;;;;;;2.08;1.17;;;9.50;99.90;;;;;;5178059;27;20510;-60
2021/10/27 03:25:08;;;;;;;1.90;1.00;;;9.20;99.90;;;;;;5177928;27;20518;-60
2021/10/27 03:27:36;;;;;;;1.70;1.10;;;9.10;99.90;;;;;;5176791;27;20952;-60
2021/10/27 03:30:04;;;;;;;1.70;1.00;;;8.90;99.90;;;;;;5176927;27;20511;-59
2021/10/27 03:32:32;;;;;;;1.45;1.00;;;8.90;99.90;;;;;;5174780;27;20411;-60
2021/10/27 03:34:59;;;;;;;1.80;1.05;;;8.90;99.90;;;;;;5176239;27;20454;-59
2021/10/27 03:37:27;;;;;;;3.03;1.00;;;8.90;99.90;;;;;;5176454;27;20407;-60
2021/10/27 03:39:55;;;;;;;2.40;1.20;;;8.90;99.90;;;;;;5177031;27;20832;-60
2021/10/27 03:42:22;;;;;;;1.50;1.10;;;9.00;99.90;;;;;;5178182;27;20510;-59
2021/10/27 03:44:49;;;;;;;2.17;1.10;;;9.10;99.90;;;;;;5178015;27;20418;-60
2021/10/27 03:47:17;;;;;;;1.30;1.00;;;9.10;99.90;;;;;;5178310;27;20411;-60
2021/10/27 03:49:44;;;;;;;1.40;1.00;;;9.10;99.90;;;;;;5178332;27;20423;-59
2021/10/27 03:52:11;;;;;;;1.85;1.00;;;9.00;99.90;;;;;;5177843;27;20486;-59
2021/10/27 03:54:40;;;;;;;2.00;1.00;;;9.00;99.90;;;;;;5176399;27;20451;-60
2021/10/27 03:57:07;;;;;;;1.50;0.98;;;9.00;99.90;;;;;;5178216;27;20887;-60
2021/10/27 03:59:34;;;;;;;1.70;1.00;;;9.00;99.90;;;;;;5176960;27;20529;-60
2021/10/27 04:02:02;;;;;;;2.20;1.00;;;9.00;99.90;;;;;;5177219;27;20419;-60
2021/10/27 04:04:29;;;;;;;1.70;0.90;;;9.00;99.90;;;;;;5176191;27;20431;-60
2021/10/27 04:06:56;;;;;;;1.35;0.90;;;9.00;99.90;;;;;;5176286;27;20494;-59
2021/10/27 04:09:24;;;;;;;1.20;0.98;;;9.10;99.90;;;;;;5176962;27;20463;-59
2021/10/27 04:11:53;;;;;;;2.25;1.00;;;9.20;99.90;;;;;;5176313;27;20450;-59
2021/10/27 04:14:20;;;;;;;2.20;1.00;;;9.20;99.90;;;;;;5175563;27;20419;-59
2021/10/27 04:16:47;;;;;;;2.70;1.20;;;9.20;99.90;;;;;;5176448;27;20793;-59
2021/10/27 04:19:14;;;;;;;1.60;1.00;;;9.10;99.90;;;;;;5176413;27;20418;-59
2021/10/27 04:21:41;;;;;;;1.87;1.00;;;9.20;99.90;;;;;;5175512;27;20474;-59
2021/10/27 04:24:09;;;;;;;1.70;1.08;;;9.20;99.90;;;;;;5175569;27;20423;-59
2021/10/27 04:26:36;;;;;;;1.42;1.00;;;9.10;99.90;;;;;;5175473;27;20913;-58
2021/10/27 04:29:05;;;;;;;1.60;0.90;;;9.10;99.90;;;;;;5175897;27;20415;-58
2021/10/27 04:31:32;;;;;;;1.60;1.00;;;9.10;99.90;;;;;;5175822;27;20415;-58
2021/10/27 04:34:00;;;;;;;1.42;1.20;;;9.20;99.90;;;;;;5175671;27;20420;-59
2021/10/27 04:36:27;;;;;;;1.60;1.10;;;9.30;99.90;;;;;;5175808;27;20896;-59
2021/10/27 04:38:54;;;;;;;1.77;1.10;;;9.40;99.90;;;;;;5175626;27;20475;-59
2021/10/27 04:41:21;;;;;;;1.35;1.02;;;9.30;99.90;;;;;;5176321;27;20403;-59
2021/10/27 04:43:49;;;;;;;1.90;1.20;;;9.20;99.90;;;;;;5177037;27;20447;-59
2021/10/27 04:46:17;;;;;;;2.10;1.10;;;9.00;99.90;;;;;;5167828;27;21013;-59
2021/10/27 04:48:44;;;;;;;2.63;1.10;;;8.90;99.90;;;;;;5155000;27;20727;-59
2021/10/27 04:51:12;;;;;;;2.00;1.00;;;8.90;99.90;;;;;;5154330;27;20808;-59
2021/10/27 04:53:39;;;;;;;1.30;1.00;;;8.90;99.90;;;;;;5155305;27;20694;-58
2021/10/27 04:56:06;;;;;;;2.70;1.10;;;8.80;99.90;;;;;;5155598;27;20509;-59
2021/10/27 04:58:34;;;;;;;1.60;1.10;;;8.80;99.90;;;;;;5152791;27;20463;-59
2021/10/27 05:01:02;;;;;;;1.73;1.20;;;8.90;99.90;;;;;;5153169;27;20421;-59
2021/10/27 05:03:31;;;;;;;1.30;1.00;;;9.00;99.90;;;;;;5152800;27;20883;-58
2021/10/27 05:06:01;;;;;;;1.50;1.00;;;9.10;99.90;;;;;;5154819;27;20894;-58
2021/10/27 05:08:31;;;;;;;1.50;1.00;;;9.10;99.90;;;;;;5154929;27;20433;-59
2021/10/27 05:10:59;;;;;;;2.50;1.10;;;9.20;99.90;;;;;;5155442;27;20791;-59
2021/10/27 05:13:26;;;;;;;1.60;1.00;;;9.30;99.90;;;;;;5155233;27;20421;-59
2021/10/27 05:15:53;;;;;;;1.40;1.10;;;9.40;99.90;;;;;;5155408;27;20542;-59
2021/10/27 05:18:21;;;;;;;2.00;1.15;;;9.50;99.90;;;;;;5154574;27;20519;-59
2021/10/27 05:20:50;;;;;;;1.83;0.90;;;9.50;99.90;;;;;;5156728;27;20859;-59
2021/10/27 05:23:17;;;;;;;1.80;1.20;;;9.60;99.90;;;;;;5154927;27;20437;-59
2021/10/27 05:25:44;;;;;;;1.75;0.90;;;9.70;99.90;;;;;;5156554;27;20501;-59
2021/10/27 05:28:12;;;;;;;1.90;1.10;;;9.40;99.90;;;;;;5156592;27;20409;-59
2021/10/27 05:30:39;;;;;;;1.67;1.10;;;9.40;99.90;;;;;;5157397;27;20424;-59
2021/10/27 05:33:06;;;;;;;2.20;1.20;;;9.50;99.90;;;;;;5158274;27;20446;-59
2021/10/27 05:35:34;;;;;;;1.40;1.13;;;9.50;99.90;;;;;;5157969;27;20440;-59
2021/10/27 05:38:03;;;;;;;1.63;1.10;;;9.50;99.90;;;;;;5157306;27;20413;-59
2021/10/27 05:40:30;;;;;;;3.08;1.33;;;9.70;99.90;;;;;;5156054;27;20459;-59
2021/10/27 05:42:57;;;;;;;1.70;1.10;;;9.70;99.90;;;;;;5152660;27;20427;-58
2021/10/27 05:45:27;;;;;;;2.20;1.40;;;9.40;99.90;;;;;;5156212;27;20477;-58
2021/10/27 05:47:57;;;;;;;1.60;1.10;;;9.20;99.90;;;;;;5153994;27;20452;-57
2021/10/27 05:50:29;;;;;;;1.90;1.15;;;9.50;99.90;;;;;;5154722;27;20425;-58
2021/10/27 05:55:57;;;;;;;2.58;1.80;;;9.30;99.90;;;;;;5111292;28;20403;-57
2021/10/27 05:58:24;;;;;;;2.10;1.55;;;8.90;99.90;;;;;;5108606;28;20423;-57
2021/10/27 06:00:51;;;;;;;2.80;1.75;;;9.00;99.90;;;;;;5129027;27;20409;-58
2021/10/27 06:03:19;;;;;;;2.05;1.50;;;9.10;99.90;;;;;;5150301;27;20515;-58
2021/10/27 06:05:46;;;;;;;4.60;1.70;;;9.50;99.90;;;;;;5134374;27;20886;-57
2021/10/27 06:08:15;;;;;;;1.67;1.25;;;9.70;99.90;;;;;;5132781;27;20458;-58
2021/10/27 06:10:42;;;;;;;3.83;1.80;;;9.70;99.90;;;;;;5133397;27;20837;-57
2021/10/27 06:13:14;;;;;;;2.88;1.70;;;9.60;99.90;;;;;;5147511;27;20413;-58
2021/10/27 06:15:42;;;;;;;2.50;1.70;;;9.30;99.90;;;;;;5154072;27;20428;-58
2021/10/27 06:18:09;;;;;;;3.07;1.63;;;9.30;99.90;;;;;;5144365;27;21114;-58
2021/10/27 06:20:36;;;;;;;2.70;1.85;;;9.10;99.90;;;;;;5151012;27;20421;-58
2021/10/27 06:23:04;;;;;;;3.80;1.85;;;8.80;99.90;;;;;;5155397;27;20425;-57
2021/10/27 06:25:35;;;;;;;4.00;2.30;;;8.60;99.90;;;;;;5155603;27;20819;-56
2021/10/27 06:28:07;;;;;;;4.00;2.03;;;8.60;99.90;;;;;;5149478;27;20417;-57
2021/10/27 06:30:44;;;;;;;3.78;1.80;;;8.60;99.90;;;;;;5138566;27;20422;-57
2021/10/27 06:33:22;;;;;;;2.85;2.10;;;8.60;99.90;;;;;;5135252;27;20481;-58
2021/10/27 06:35:56;;;;;;;2.95;2.30;;;8.60;99.90;;;;;;5138361;27;20449;-58
2021/10/27 06:38:32;;;;;;;4.10;2.38;;;8.70;99.90;;;;;;5155921;27;20428;-57
2021/10/27 06:46:39;;;;;;;6.40;3.10;;;8.80;99.90;;;;;;5152661;27;20489;-57
2021/10/27 06:49:06;;;;;;;2.55;2.20;;;8.80;99.90;;;;;;5133813;27;20447;-58
2021/10/27 06:51:34;;;;;;;4.25;2.67;;;9.00;99.90;;;;;;5133248;27;20423;-59
2021/10/27 06:54:02;;;;;;;3.15;1.95;;;9.00;99.90;;;;;;5145429;27;20491;-58
2021/10/27 06:56:30;;;;;;;3.27;1.87;;;9.10;99.90;;;;;;5150622;27;20520;-60
2021/10/27 06:59:04;;;;;;;3.28;2.10;;;9.00;99.90;;;;;;5132586;27;20520;-62
2021/10/27 07:01:40;;;;;;;4.20;2.10;;;9.00;99.90;;;;;;5130587;27;20483;-62
2021/10/27 07:04:35;;;;;;;3.47;2.00;;;9.10;99.90;;;;;;5132613;27;20868;-62
2021/10/27 07:15:18;;;;;;;3.50;2.40;;;9.00;99.90;;;;;;5153043;27;20702;-62
2021/10/27 07:17:50;;;;;;;3.00;2.45;;;8.90;99.90;;;;;;5147383;27;20428;-62
2021/10/27 07:20:20;;;;;;;4.40;2.38;;;8.90;99.90;;;;;;5133020;27;20521;-62
2021/10/27 07:22:48;;;;;;;6.55;3.10;;;8.90;99.90;;;;;;5132572;27;20517;-62
2021/10/27 07:25:18;;;;;;;4.68;2.40;;;8.90;99.90;;;;;;5137775;27;20465;-62
2021/10/27 07:27:46;;;;;;;3.10;2.10;;;8.90;99.90;;;;;;5151759;27;20848;-61
2021/10/27 07:30:15;;;;;;;4.85;2.78;;;8.90;99.90;;;;;;5153496;27;20424;-62
2021/10/27 07:32:51;;;;;;;2.65;1.98;;;9.00;99.90;;;;;;5152490;27;20440;-61
2021/10/27 07:40:57;;;;;;;4.23;1.80;;;9.40;99.90;;;;;;5135834;27;20485;-62
2021/10/27 07:43:30;;;;;;;3.10;2.00;;;9.50;99.90;;;;;;5141405;27;20436;-61
2021/10/27 07:45:57;;;;;;;2.45;2.00;;;9.50;99.90;;;;;;5149205;27;20733;-62
2021/10/27 07:48:26;;;;;;;5.38;2.30;;;9.50;99.90;;;;;;5133118;27;20486;-60
2021/10/27 07:50:57;;;;;;;3.28;2.38;;;9.50;99.90;;;;;;5150418;27;20420;-59
2021/10/27 07:53:27;;;;;;;5.20;2.47;;;9.50;99.90;;;;;;5154704;27;20485;-59
2021/10/27 07:55:54;;;;;;;3.25;1.55;;;9.70;99.90;;;;;;5154735;27;20433;-59
2021/10/27 07:58:22;;;;;;;4.03;2.05;;;9.80;99.90;;;;;;5141732;27;20426;-60
2021/10/27 08:00:51;;;;;;;5.22;1.90;;;10.00;99.90;;;;;;5133437;27;21012;-60
2021/10/27 08:03:21;;;;;;;2.50;1.98;;;10.10;99.90;;;;;;5130417;27;21282;-59
2021/10/27 08:05:49;;;;;;;4.40;1.90;;;10.30;99.90;;;;;;5131057;27;20632;-60
2021/10/27 08:08:22;;;;;;;2.60;1.50;;;10.40;99.90;;;;;;5131661;27;20703;-59
2021/10/27 08:10:50;;;;;;;3.10;1.70;;;10.50;99.90;;;;;;5132805;27;20687;-60
2021/10/27 08:13:19;;;;;;;4.57;2.00;;;10.50;99.90;;;;;;5140640;27;20420;-59
2021/10/27 08:15:54;;;;;;;2.70;2.00;;;10.40;99.90;;;;;;5150339;27;20719;-60
2021/10/27 08:18:27;;;;;;;3.13;2.15;;;10.40;99.90;;;;;;5133285;27;20462;-59
2021/10/27 08:20:55;;;;;;;3.47;2.00;;;10.30;99.90;;;;;;5133024;27;20479;-60
2021/10/27 08:23:28;;;;;;;4.00;1.90;;;10.40;99.90;;;;;;5134101;28;20575;-60
2021/10/27 08:25:57;;;;;;;2.50;1.85;;;10.40;99.90;;;;;;5134389;27;20501;-60
2021/10/27 08:28:33;;;;;;;3.80;2.00;;;10.40;99.90;;;;;;5131338;27;20420;-60
2021/10/27 08:31:06;;;;;;;3.55;1.60;;;10.40;99.90;;;;;;5132097;28;20423;-60
2021/10/27 08:33:45;;;;;;;3.38;1.70;;;10.40;99.90;;;;;;5132677;28;20847;-60
2021/10/27 08:36:13;;;;;;;3.13;1.80;;;10.50;99.90;;;;;;5132647;28;20509;-60
2021/10/27 08:38:42;;;;;;;2.13;1.42;;;10.50;99.90;;;;;;5133672;27;20465;-60
2021/10/27 08:41:10;;;;;;;4.00;1.90;;;10.50;99.90;;;;;;5132835;28;20442;-61
2021/10/27 08:43:37;;;;;;;3.10;1.67;;;10.60;99.90;;;;;;5132067;28;20521;-61
2021/10/27 08:46:07;;;;;;;2.72;1.80;;;10.60;99.90;;;;;;5132123;28;20494;-61
2021/10/27 08:48:36;;;;;;;2.97;1.73;;;10.80;99.90;;;;;;5132325;28;20535;-60
2021/10/27 08:51:05;;;;;;;2.50;1.90;;;10.80;99.90;;;;;;5133301;27;20495;-60
2021/10/27 08:53:34;;;;;;;2.60;1.70;;;11.00;99.90;;;;;;5133969;27;20429;-61
2021/10/27 08:56:10;;;;;;;3.10;1.70;;;11.00;99.90;;;;;;5136588;27;20414;-60
2021/10/27 08:58:40;;;;;;;2.97;1.80;;;11.10;99.90;;;;;;5135356;27;20470;-61
2021/10/27 09:01:13;;;;;;;2.70;1.65;;;11.20;99.90;;;;;;5136512;27;20434;-60
2021/10/27 09:04:13;;;;;;;3.20;1.70;;;11.30;99.90;;;;;;5135950;27;20430;-60
2021/10/27 09:06:48;;;;;;;2.75;1.60;;;11.30;99.90;;;;;;5136780;27;20459;-60
2021/10/27 09:09:49;;;;;;;3.60;1.40;;;11.40;99.90;;;;;;5136383;27;20767;-61
2021/10/27 09:15:39;;;;;;;5.80;1.90;;;11.60;99.90;;;;;;5134997;27;20406;-61
2021/10/27 09:44:43;;;;;;;3.70;2.90;;;12.80;99.90;;;;;;5132944;27;20950;-60
2021/10/27 09:55:24;;;;;;;2.50;1.77;;;12.70;99.90;;;;;;5135622;27;20444;-60
2021/10/27 10:04:42;;;;;;;4.07;1.60;;;13.50;99.90;;;;;;5109934;28;20458;-60
2021/10/27 10:09:57;;;;;;;3.80;1.98;;;13.70;99.90;;;;;;5149077;27;20432;-61
2021/10/27 10:12:25;;;;;;;2.60;1.80;;;13.90;99.90;;;;;;5138999;27;20457;-61
2021/10/27 10:14:54;;;;;;;2.30;1.60;;;14.00;99.90;;;;;;5133125;27;20499;-61
2021/10/27 10:17:22;;;;;;;3.58;1.85;;;14.20;99.90;;;;;;5153238;27;20420;-61
2021/10/27 10:19:51;;;;;;;6.00;2.20;;;14.10;99.90;;;;;;5153022;27;21015;-61
2021/10/27 10:22:28;;;;;;;2.47;1.77;;;14.10;99.90;;;;;;5154245;27;20428;-61
2021/10/27 10:25:16;;;;;;;2.20;1.20;;;14.10;99.90;;;;;;5146860;27;20741;-60
2021/10/27 10:27:43;;;;;;;1.63;1.00;;;14.10;99.90;;;;;;5140889;27;21083;-60
2021/10/27 10:30:29;;;;;;;1.70;1.00;;;14.10;99.90;;;;;;5156076;27;20547;-61
2021/10/27 10:33:07;;;;;;;1.70;0.90;;;14.20;99.90;;;;;;5152371;27;20929;-61
2021/10/27 10:36:09;;;;;;;2.30;1.10;;;14.20;99.90;;;;;;5151835;27;20415;-60
2021/10/27 10:39:01;;;;;;;2.80;1.00;;;14.30;99.90;;;;;;5149521;27;20449;-60
2021/10/27 11:22:52;;;;;;;1.70;1.10;;;15.70;99.90;;;;;;5154097;27;20439;-59
2021/10/27 11:25:41;;;;;;;3.20;1.07;;;15.50;99.90;;;;;;5153951;27;20436;-60
2021/10/27 11:40:13;;;;;;;1.60;0.90;;;16.40;99.90;;;;;;5144878;27;20389;-60
2021/10/27 11:42:49;;;;;;;1.10;0.80;;;16.20;99.90;;;;;;5151662;27;20469;-60
2021/10/27 11:46:10;;;;;;;1.70;0.70;;;16.10;99.90;;;;;;5144396;27;20474;-60
2021/10/27 11:48:55;;;;;;;1.00;0.60;;;16.00;99.90;;;;;;5150578;27;20801;-61
2021/10/27 11:51:27;;;;;;;0.93;0.60;;;16.40;99.90;;;;;;5151669;27;20776;-60
2021/10/27 11:54:00;;;;;;;1.40;0.70;;;16.60;99.90;;;;;;5154512;27;20416;-60
2021/10/27 11:56:28;;;;;;;1.30;0.77;;;16.40;99.90;;;;;;5153818;27;20425;-60
2021/10/27 11:59:02;;;;;;;1.73;0.60;;;16.50;99.90;;;;;;5149897;27;20919;-59
2021/10/27 12:01:39;;;;;;;1.00;0.63;;;16.50;99.90;;;;;;5143525;27;20445;-60
2021/10/27 12:04:12;;;;;;;0.90;0.70;;;16.40;99.90;;;;;;5153948;27;20454;-63
2021/10/27 12:06:45;;;;;;;1.40;0.70;;;16.30;99.90;;;;;;5154093;27;20836;-63
2021/10/27 12:09:42;;;;;;;0.90;0.60;;;16.40;99.90;;;;;;5152919;27;20496;-64
2021/10/27 12:15:40;;;;;;;0.70;0.50;;;16.40;99.90;;;;;;5148651;27;20415;-63
2021/10/27 12:18:13;;;;;;;0.80;0.50;;;16.40;99.90;;;;;;5139350;27;20422;-63
2021/10/27 12:20:44;;;;;;;0.90;0.50;;;16.30;99.90;;;;;;5148709;27;20775;-63
2021/10/27 12:26:11;;;;;;;0.65;0.40;;;16.00;99.90;;;;;;5151346;27;20429;-62
2021/10/27 12:28:40;;;;;;;0.90;0.50;;;16.10;99.90;;;;;;5154033;27;20432;-64
2021/10/27 12:31:32;;;;;;;1.50;0.60;;;16.20;99.90;;;;;;5158097;27;20417;-63
2021/10/27 12:34:03;;;;;;;1.13;0.50;;;16.10;99.90;;;;;;5156915;27;20449;-63
2021/10/27 12:36:39;;;;;;;0.90;0.40;;;16.10;99.90;;;;;;5155794;27;20450;-63
2021/10/27 12:39:24;;;;;;;0.97;0.60;;;16.20;99.90;;;;;;5156095;27;20428;-63
2021/10/27 12:42:09;;;;;;;2.33;0.60;;;16.10;99.90;;;;;;5158456;27;20412;-63
2021/10/27 12:44:59;;;;;;;1.40;0.70;;;16.10;99.90;;;;;;5153843;27;20433;-61
2021/10/27 12:47:33;;;;;;;1.70;0.60;;;16.20;99.90;;;;;;5156586;27;20415;-63
2021/10/27 12:50:24;;;;;;;0.80;0.60;;;16.20;99.90;;;;;;5156946;27;20420;-62
2021/10/27 12:52:57;;;;;;;1.67;0.60;;;16.20;99.90;;;;;;5157484;27;20784;-61
2021/10/27 12:55:44;;;;;;;1.20;0.60;;;16.20;99.90;;;;;;5155560;27;20727;-60
2021/10/27 12:58:15;;;;;;;1.45;0.70;;;16.30;99.90;;;;;;5155426;27;20712;-59
2021/10/27 13:03:45;;;;;;;1.00;0.70;;;16.10;99.90;;;;;;5156090;27;20424;-62
2021/10/27 13:06:22;;;;;;;1.10;0.60;;;16.10;99.90;;;;;;5156939;27;20433;-60
2021/10/27 13:14:40;;;;;;;1.80;0.60;;;16.10;99.90;;;;;;5150948;27;20489;-60
2021/10/27 13:22:51;;;;;;;1.50;0.60;;;16.10;99.90;;;;;;5161117;27;20426;-60
2021/10/27 13:31:06;;;;;;;1.88;0.60;;;16.10;99.90;;;;;;5088370;28;20495;-59
2021/10/27 13:33:34;;;;;;;1.20;0.50;;;16.10;99.90;;;;;;5146259;27;20437;-59
2021/10/27 13:36:02;;;;;;;0.70;0.50;;;16.10;99.90;;;;;;5163868;27;20507;-59
2021/10/27 13:38:35;;;;;;;0.73;0.40;;;16.00;99.90;;;;;;5165899;27;20423;-59
2021/10/27 13:41:04;;;;;;;1.20;0.40;;;16.10;99.90;;;;;;5165727;27;20461;-60
2021/10/27 13:43:38;;;;;;;1.30;0.50;;;16.10;99.90;;;;;;5164652;27;20417;-59
2021/10/27 13:46:23;;;;;;;0.75;0.50;;;16.10;99.90;;;;;;5164135;27;20427;-59
2021/10/27 14:06:03;;;;;;;1.88;0.80;;;16.20;99.90;;;;;;5092238;28;20426;-59
2021/10/27 14:08:39;;;;;;;1.45;0.60;;;16.20;99.90;;;;;;5075571;28;20789;-58
2021/10/27 14:11:16;;;;;;;1.40;0.60;;;16.20;99.90;;;;;;5100332;27;20432;-58
2021/10/27 14:13:59;;;;;;;1.42;0.70;;;16.10;99.90;;;;;;5120085;27;20421;-61
2021/10/27 14:16:50;;;;;;;1.10;0.70;;;16.10;99.90;;;;;;5133167;27;20422;-59
2021/10/27 15:20:41;;;;;;;3.92;0.70;;;15.30;99.90;;;;;;5079912;28;20439;-60
2021/10/27 15:23:15;;;;;;;1.80;1.05;;;15.30;99.90;;;;;;5134896;27;20805;-60
2021/10/27 15:28:47;;;;;;;2.10;1.00;;;15.20;99.90;;;;;;5092337;27;20871;-60
2021/10/27 15:31:27;;;;;;;2.33;0.90;;;15.20;99.90;;;;;;5136305;27;20490;-60
2021/10/27 15:34:32;;;;;;;2.10;0.80;;;15.10;99.90;;;;;;5149415;27;20428;-60
2021/10/27 15:37:17;;;;;;;1.77;0.80;;;15.10;99.90;;;;;;5135657;27;20425;-60
2021/10/27 15:42:51;;;;;;;2.28;0.80;;;15.00;99.90;;;;;;5154165;27;20462;-58
2021/10/27 15:45:39;;;;;;;2.30;0.70;;;14.90;99.90;;;;;;5152448;27;20905;-59
2021/10/27 15:50:57;;;;;;;1.70;0.80;;;14.80;99.90;;;;;;5151526;27;20501;-59
2021/10/27 15:53:24;;;;;;;1.70;0.70;;;14.70;99.90;;;;;;5150493;27;20408;-60
2021/10/27 15:55:53;;;;;;;1.90;0.90;;;14.60;99.90;;;;;;5151853;27;20472;-59
2021/10/27 15:58:22;;;;;;;1.00;0.70;;;14.60;99.90;;;;;;5150510;27;20603;-59
2021/10/27 16:00:52;;;;;;;2.63;0.80;;;14.60;99.90;;;;;;5154614;27;20429;-59
2021/10/27 16:03:20;;;;;;;1.10;0.70;;;14.60;99.90;;;;;;5145080;27;20861;-60
2021/10/27 16:05:49;;;;;;;1.02;0.75;;;14.60;99.90;;;;;;5126305;27;20420;-59
2021/10/27 16:08:22;;;;;;;2.50;0.80;;;14.60;99.90;;;;;;5126307;27;20426;-60
2021/10/27 16:11:07;;;;;;;2.28;0.90;;;14.50;99.90;;;;;;5157148;27;20667;-60
2021/10/27 16:13:36;;;;;;;1.70;0.80;;;14.50;99.90;;;;;;5155979;27;20483;-59
2021/10/27 16:16:04;;;;;;;1.20;0.70;;;14.40;99.90;;;;;;5149003;27;20448;-60
2021/10/27 16:18:38;;;;;;;4.30;0.80;;;14.30;99.90;;;;;;5153897;27;20412;-59
2021/10/27 16:21:06;;;;;;;1.50;0.80;;;14.20;99.90;;;;;;5154656;27;20843;-61
2021/10/27 16:23:38;;;;;;;1.63;0.70;;;14.20;99.90;;;;;;5162814;27;20487;-60
2021/10/27 16:26:06;;;;;;;1.60;0.70;;;14.20;99.90;;;;;;5144469;27;20819;-60
2021/10/27 16:28:36;;;;;;;1.60;0.80;;;14.20;99.90;;;;;;5152828;27;20419;-60
2021/10/27 16:31:07;;;;;;;2.33;0.80;;;14.10;99.90;;;;;;5151813;27;20489;-60
2021/10/27 16:33:39;;;;;;;2.17;0.80;;;14.00;99.90;;;;;;5148647;27;20861;-59
2021/10/27 16:36:11;;;;;;;1.45;0.70;;;14.00;99.90;;;;;;5139026;27;20433;-60
2021/10/27 16:38:45;;;;;;;0.90;0.70;;;14.00;99.90;;;;;;5146742;27;20420;-58
2021/10/27 16:41:20;;;;;;;1.65;0.80;;;13.90;99.90;;;;;;5138525;27;20515;-59
2021/10/27 16:43:47;;;;;;;2.20;0.80;;;13.80;99.90;;;;;;5152100;27;20421;-60
2021/10/27 16:46:15;;;;;;;1.88;0.80;;;13.80;99.90;;;;;;5153915;27;20424;-60
2021/10/27 16:48:42;;;;;;;2.30;0.80;;;13.80;99.90;;;;;;5154498;27;20474;-61
2021/10/27 16:51:10;;;;;;;2.30;1.10;;;13.80;99.90;;;;;;5134497;27;20525;-60
2021/10/27 16:53:39;;;;;;;2.05;1.05;;;13.70;99.90;;;;;;5140900;27;20500;-60
2021/10/27 16:56:06;;;;;;;2.70;0.90;;;13.70;99.90;;;;;;5148132;27;20461;-60
2021/10/27 16:58:34;;;;;;;1.57;0.90;;;13.70;99.90;;;;;;5131790;27;21124;-60
2021/10/27 17:01:02;;;;;;;2.90;0.90;;;13.70;99.90;;;;;;5136231;27;20435;-60
2021/10/27 17:03:33;;;;;;;3.20;0.80;;;13.70;99.90;;;;;;5132423;27;20450;-61
2021/10/27 17:06:01;;;;;;;1.90;0.82;;;13.60;99.90;;;;;;5153461;27;20431;-60
2021/10/27 17:08:32;;;;;;;1.67;0.90;;;13.60;99.90;;;;;;5153926;27;20693;-60